sensor_id;sensor_type;location;lat;lon;timestamp;pressure;altitude;pressure_sealevel;temperature;humidity
10978;BME280;5542;48.272;10.794;2023-05-14T00:00:51;95622.75;;;10.81;100.00
10978;BME280;5542;48.272;10.794;2023-05-14T00:03:18;95612.81;;;10.83;100.00
10978;BME280;5542;48.272;10.794;2023-05-14T00:05:47;95615.31;;;10.77;100.00
10978;BME280;5542;48.272;10.794;2023-05-14T00:08:13;95616.47;;;10.82;100.00
10978;BME280;5542;48.272;10.794;2023-05-14T00:10:40;95616.47;;;10.82;100.00
10978;BME280;5542;48.272;10.794;2023-05-14T00:13:07;95616.56;;;10.87;100.00
10978;BME280;5542;48.272;10.794;2023-05-14T00:15:33;95611.00;;;10.71;100.00
10978;BME280;5542;48.272;10.794;2023-05-14T00:18:00;95615.59;;;10.64;100.00
10978;BME280;5542;48.272;10.794;2023-05-14T00:20:27;95608.16;;;10.73;100.00
10978;BME280;5542;48.272;10.794;2023-05-14T00:22:55;95608.25;;;10.66;100.00
10978;BME280;5542;48.272;10.794;2023-05-14T00:25:21;95598.28;;;10.80;100.00
10978;BME280;5542;48.272;10.794;2023-05-14T00:27:48;95604.47;;;10.74;100.00
10978;BME280;5542;48.272;10.794;2023-05-14T00:30:15;95606.16;;;10.80;100.00
10978;BME280;5542;48.272;10.794;2023-05-14T00:32:41;95604.59;;;10.67;100.00
10978;BME280;5542;48.272;10.794;2023-05-14T00:35:08;95599.13;;;10.57;100.00
10978;BME280;5542;48.272;10.794;2023-05-14T00:37:35;95604.16;;;10.59;100.00
10978;BME280;5542;48.272;10.794;2023-05-14T00:40:03;95603.78;;;10.67;100.00
10978;BME280;5542;48.272;10.794;2023-05-14T00:42:31;95608.38;;;10.60;100.00
10978;BME280;5542;48.272;10.794;2023-05-14T00:44:58;95603.22;;;10.53;100.00
10978;BME280;5542;48.272;10.794;2023-05-14T00:47:25;95600.38;;;10.66;100.00
10978;BME280;5542;48.272;10.794;2023-05-14T00:49:52;95604.00;;;10.77;100.00
10978;BME280;5542;48.272;10.794;2023-05-14T00:52:19;95600.72;;;10.70;100.00
10978;BME280;5542;48.272;10.794;2023-05-14T00:54:47;95598.88;;;10.70;100.00
10978;BME280;5542;48.272;10.794;2023-05-14T00:57:15;95593.75;;;10.64;100.00
10978;BME280;5542;48.272;10.794;2023-05-14T00:59:42;95594.66;;;10.58;100.00
10978;BME280;5542;48.272;10.794;2023-05-14T01:02:09;95592.81;;;10.70;100.00
10978;BME280;5542;48.272;10.794;2023-05-14T01:04:37;95594.16;;;10.72;100.00
10978;BME280;5542;48.272;10.794;2023-05-14T01:07:10;95595.53;;;10.75;100.00
10978;BME280;5542;48.272;10.794;2023-05-14T01:09:43;95590.03;;;10.76;100.00
10978;BME280;5542;48.272;10.794;2023-05-14T01:12:18;95596.28;;;10.59;100.00
10978;BME280;5542;48.272;10.794;2023-05-14T01:14:53;95592.84;;;10.46;100.00
10978;BME280;5542;48.272;10.794;2023-05-14T01:17:21;95587.25;;;10.43;100.00
10978;BME280;5542;48.272;10.794;2023-05-14T01:19:50;95592.84;;;10.46;100.00
10978;BME280;5542;48.272;10.794;2023-05-14T01:22:18;95596.41;;;10.40;100.00
10978;BME280;5542;48.272;10.794;2023-05-14T01:24:45;95595.03;;;10.38;100.00
10978;BME280;5542;48.272;10.794;2023-05-14T01:27:16;95595.25;;;10.36;100.00
10978;BME280;5542;48.272;10.794;2023-05-14T01:29:48;95594.56;;;10.41;100.00
10978;BME280;5542;48.272;10.794;2023-05-14T01:32:19;95594.56;;;10.41;100.00
10978;BME280;5542;48.272;10.794;2023-05-14T01:34:49;95592.50;;;10.43;100.00
10978;BME280;5542;48.272;10.794;2023-05-14T01:37:19;95598.09;;;10.35;100.00
10978;BME280;5542;48.272;10.794;2023-05-14T01:39:46;95592.16;;;10.39;100.00
10978;BME280;5542;48.272;10.794;2023-05-14T01:42:14;95593.19;;;10.38;100.00
10978;BME280;5542;48.272;10.794;2023-05-14T01:44:41;95595.38;;;10.41;100.00
10978;BME280;5542;48.272;10.794;2023-05-14T01:47:07;95594.53;;;10.52;100.00
10978;BME280;5542;48.272;10.794;2023-05-14T01:49:34;95589.53;;;10.51;100.00
10978;BME280;5542;48.272;10.794;2023-05-14T01:52:01;95598.56;;;10.43;100.00
10978;BME280;5542;48.272;10.794;2023-05-14T01:54:29;95593.53;;;10.42;100.00
10978;BME280;5542;48.272;10.794;2023-05-14T01:56:56;95591.72;;;10.31;100.00
10978;BME280;5542;48.272;10.794;2023-05-14T01:59:22;95589.41;;;10.34;100.00
10978;BME280;5542;48.272;10.794;2023-05-14T02:01:49;95586.91;;;10.39;100.00
10978;BME280;5542;48.272;10.794;2023-05-14T02:04:16;95582.09;;;10.24;100.00
10978;BME280;5542;48.272;10.794;2023-05-14T02:06:43;95589.22;;;10.36;100.00
10978;BME280;5542;48.272;10.794;2023-05-14T02:09:10;95580.97;;;10.32;100.00
10978;BME280;5542;48.272;10.794;2023-05-14T02:11:38;95583.34;;;10.22;100.00
10978;BME280;5542;48.272;10.794;2023-05-14T02:14:04;95581.09;;;10.25;100.00
10978;BME280;5542;48.272;10.794;2023-05-14T02:16:31;95583.94;;;10.24;100.00
10978;BME280;5542;48.272;10.794;2023-05-14T02:18:57;95579.81;;;10.28;100.00
10978;BME280;5542;48.272;10.794;2023-05-14T02:21:24;95584.63;;;10.31;100.00
10978;BME280;5542;48.272;10.794;2023-05-14T02:23:51;95579.50;;;10.36;100.00
10978;BME280;5542;48.272;10.794;2023-05-14T02:26:17;95580.63;;;10.40;100.00
10978;BME280;5542;48.272;10.794;2023-05-14T02:28:45;95578.09;;;10.45;100.00
10978;BME280;5542;48.272;10.794;2023-05-14T02:31:12;95582.88;;;10.48;100.00
10978;BME280;5542;48.272;10.794;2023-05-14T02:33:39;95575.00;;;10.48;100.00
10978;BME280;5542;48.272;10.794;2023-05-14T02:36:06;95565.66;;;10.41;100.00
10978;BME280;5542;48.272;10.794;2023-05-14T02:38:32;95567.00;;;10.43;100.00
10978;BME280;5542;48.272;10.794;2023-05-14T02:40:59;95568.16;;;10.47;100.00
10978;BME280;5542;48.272;10.794;2023-05-14T02:43:26;95559.94;;;10.32;100.00
10978;BME280;5542;48.272;10.794;2023-05-14T02:45:53;95559.69;;;10.22;100.00
10978;BME280;5542;48.272;10.794;2023-05-14T02:48:20;95554.34;;;10.17;100.00
10978;BME280;5542;48.272;10.794;2023-05-14T02:50:47;95554.88;;;10.19;100.00
10978;BME280;5542;48.272;10.794;2023-05-14T02:53:13;95558.91;;;10.21;100.00
10978;BME280;5542;48.272;10.794;2023-05-14T02:55:40;95552.19;;;10.25;100.00
10978;BME280;5542;48.272;10.794;2023-05-14T02:58:08;95549.09;;;10.29;100.00
10978;BME280;5542;48.272;10.794;2023-05-14T03:00:35;95545.88;;;10.38;100.00
10978;BME280;5542;48.272;10.794;2023-05-14T03:03:03;95542.66;;;10.48;100.00
10978;BME280;5542;48.272;10.794;2023-05-14T03:05:30;95542.06;;;10.58;100.00
10978;BME280;5542;48.272;10.794;2023-05-14T03:07:57;95540.00;;;10.60;100.00
10978;BME280;5542;48.272;10.794;2023-05-14T03:10:23;95540.13;;;10.65;100.00
10978;BME280;5542;48.272;10.794;2023-05-14T03:12:50;95541.97;;;10.52;100.00
10978;BME280;5542;48.272;10.794;2023-05-14T03:15:17;95535.56;;;10.48;99.97
10978;BME280;5542;48.272;10.794;2023-05-14T03:17:43;95536.41;;;10.25;100.00
10978;BME280;5542;48.272;10.794;2023-05-14T03:20:12;95545.84;;;10.15;100.00
10978;BME280;5542;48.272;10.794;2023-05-14T03:22:38;95541.19;;;10.17;100.00
10978;BME280;5542;48.272;10.794;2023-05-14T03:25:06;95532.97;;;10.13;100.00
10978;BME280;5542;48.272;10.794;2023-05-14T03:27:32;95532.81;;;10.20;100.00
10978;BME280;5542;48.272;10.794;2023-05-14T03:29:59;95539.59;;;10.28;100.00
10978;BME280;5542;48.272;10.794;2023-05-14T03:32:25;95536.41;;;10.25;100.00
10978;BME280;5542;48.272;10.794;2023-05-14T03:34:52;95538.56;;;10.29;100.00
10978;BME280;5542;48.272;10.794;2023-05-14T03:37:20;95537.63;;;10.35;100.00
10978;BME280;5542;48.272;10.794;2023-05-14T03:39:47;95536.97;;;10.28;100.00
10978;BME280;5542;48.272;10.794;2023-05-14T03:42:13;95538.56;;;10.17;100.00
10978;BME280;5542;48.272;10.794;2023-05-14T03:44:40;95532.28;;;10.18;100.00
10978;BME280;5542;48.272;10.794;2023-05-14T03:47:06;95532.72;;;10.15;100.00
10978;BME280;5542;48.272;10.794;2023-05-14T03:49:33;95534.09;;;10.17;100.00
10978;BME280;5542;48.272;10.794;2023-05-14T03:51:59;95542.09;;;10.22;100.00
10978;BME280;5542;48.272;10.794;2023-05-14T03:54:27;95540.16;;;10.30;100.00
10978;BME280;5542;48.272;10.794;2023-05-14T03:56:54;95544.63;;;10.29;100.00
10978;BME280;5542;48.272;10.794;2023-05-14T03:59:20;95540.63;;;10.27;100.00
10978;BME280;5542;48.272;10.794;2023-05-14T04:01:47;95539.38;;;10.29;100.00
10978;BME280;5542;48.272;10.794;2023-05-14T04:04:13;95540.16;;;10.30;100.00
10978;BME280;5542;48.272;10.794;2023-05-14T04:06:40;95537.06;;;10.21;100.00
10978;BME280;5542;48.272;10.794;2023-05-14T04:09:06;95535.00;;;10.23;100.00
10978;BME280;5542;48.272;10.794;2023-05-14T04:11:36;95530.34;;;10.25;100.00
10978;BME280;5542;48.272;10.794;2023-05-14T04:14:03;95534.91;;;10.30;100.00
10978;BME280;5542;48.272;10.794;2023-05-14T04:16:29;95533.06;;;10.30;100.00
10978;BME280;5542;48.272;10.794;2023-05-14T04:18:56;95539.38;;;10.29;100.00
10978;BME280;5542;48.272;10.794;2023-05-14T04:21:22;95540.06;;;10.36;100.00
10978;BME280;5542;48.272;10.794;2023-05-14T04:23:49;95535.84;;;10.35;100.00
10978;BME280;5542;48.272;10.794;2023-05-14T04:26:15;95542.09;;;10.34;100.00
10978;BME280;5542;48.272;10.794;2023-05-14T04:28:43;95530.00;;;10.33;100.00
10978;BME280;5542;48.272;10.794;2023-05-14T04:31:11;95536.19;;;10.27;100.00
10978;BME280;5542;48.272;10.794;2023-05-14T04:33:37;95532.50;;;10.28;100.00
10978;BME280;5542;48.272;10.794;2023-05-14T04:36:04;95531.69;;;10.16;100.00
10978;BME280;5542;48.272;10.794;2023-05-14T04:38:31;95528.63;;;10.07;100.00
10978;BME280;5542;48.272;10.794;2023-05-14T04:40:59;95533.09;;;10.07;100.00
10978;BME280;5542;48.272;10.794;2023-05-14T04:43:26;95528.97;;;9.99;100.00
10978;BME280;5542;48.272;10.794;2023-05-14T04:45:54;95534.09;;;9.94;100.00
10978;BME280;5542;48.272;10.794;2023-05-14T04:48:20;95532.97;;;9.78;100.00
10978;BME280;5542;48.272;10.794;2023-05-14T04:50:47;95534.69;;;9.84;100.00
10978;BME280;5542;48.272;10.794;2023-05-14T04:53:13;95537.09;;;9.97;100.00
10978;BME280;5542;48.272;10.794;2023-05-14T04:55:40;95529.19;;;9.86;100.00
10978;BME280;5542;48.272;10.794;2023-05-14T04:58:10;95530.66;;;9.82;100.00
10978;BME280;5542;48.272;10.794;2023-05-14T05:00:36;95534.09;;;9.94;100.00
10978;BME280;5542;48.272;10.794;2023-05-14T05:03:05;95544.84;;;9.92;100.00
10978;BME280;5542;48.272;10.794;2023-05-14T05:05:32;95537.41;;;10.01;100.00
10978;BME280;5542;48.272;10.794;2023-05-14T05:07:59;95540.03;;;10.01;100.00
10978;BME280;5542;48.272;10.794;2023-05-14T05:10:25;95547.56;;;9.86;100.00
10978;BME280;5542;48.272;10.794;2023-05-14T05:12:52;95542.34;;;9.97;100.00
10978;BME280;5542;48.272;10.794;2023-05-14T05:15:19;95538.78;;;9.92;100.00
10978;BME280;5542;48.272;10.794;2023-05-14T05:17:45;95540.41;;;9.93;100.00
10978;BME280;5542;48.272;10.794;2023-05-14T05:20:13;95546.66;;;9.92;100.00
10978;BME280;5542;48.272;10.794;2023-05-14T05:22:40;95542.44;;;9.91;100.00
10978;BME280;5542;48.272;10.794;2023-05-14T05:25:07;95540.03;;;9.89;100.00
10978;BME280;5542;48.272;10.794;2023-05-14T05:27:33;95537.66;;;9.88;100.00
10978;BME280;5542;48.272;10.794;2023-05-14T05:30:00;95540.03;;;9.89;100.00
10978;BME280;5542;48.272;10.794;2023-05-14T05:32:28;95540.28;;;9.99;100.00
10978;BME280;5542;48.272;10.794;2023-05-14T05:34:54;95547.13;;;10.00;100.00
10978;BME280;5542;48.272;10.794;2023-05-14T05:37:22;95543.13;;;9.98;100.00
10978;BME280;5542;48.272;10.794;2023-05-14T05:39:49;95547.03;;;10.07;99.70
10978;BME280;5542;48.272;10.794;2023-05-14T05:42:15;95543.69;;;10.00;100.00
10978;BME280;5542;48.272;10.794;2023-05-14T05:44:42;95541.09;;;10.12;100.00
10978;BME280;5542;48.272;10.794;2023-05-14T05:47:08;95537.75;;;10.05;100.00
10978;BME280;5542;48.272;10.794;2023-05-14T05:49:35;95539.13;;;10.07;99.78
10978;BME280;5542;48.272;10.794;2023-05-14T05:52:02;95531.16;;;10.02;100.00
10978;BME280;5542;48.272;10.794;2023-05-14T05:54:30;95536.16;;;10.04;100.00
10978;BME280;5542;48.272;10.794;2023-05-14T05:56:57;95538.56;;;10.05;100.00
10978;BME280;5542;48.272;10.794;2023-05-14T05:59:24;95543.47;;;10.13;99.35
10978;BME280;5542;48.272;10.794;2023-05-14T06:01:50;95540.16;;;10.18;99.61
10978;BME280;5542;48.272;10.794;2023-05-14T06:04:17;95537.97;;;10.15;99.17
10978;BME280;5542;48.272;10.794;2023-05-14T06:06:44;95542.56;;;10.08;100.00
10978;BME280;5542;48.272;10.794;2023-05-14T06:09:10;95536.59;;;10.00;100.00
10978;BME280;5542;48.272;10.794;2023-05-14T06:11:38;95543.59;;;10.07;100.00
10978;BME280;5542;48.272;10.794;2023-05-14T06:14:05;95541.31;;;9.98;100.00
10978;BME280;5542;48.272;10.794;2023-05-14T06:16:32;95533.28;;;10.05;99.98
10978;BME280;5542;48.272;10.794;2023-05-14T06:18:58;95537.41;;;10.13;99.71
10978;BME280;5542;48.272;10.794;2023-05-14T06:21:25;95538.78;;;10.15;100.00
10978;BME280;5542;48.272;10.794;2023-05-14T06:23:52;95537.19;;;10.03;100.00
10978;BME280;5542;48.272;10.794;2023-05-14T06:26:18;95537.41;;;10.01;100.00
10978;BME280;5542;48.272;10.794;2023-05-14T06:28:46;95540.16;;;10.06;100.00
10978;BME280;5542;48.272;10.794;2023-05-14T06:31:13;95544.72;;;10.22;100.00
10978;BME280;5542;48.272;10.794;2023-05-14T06:33:39;95550.31;;;10.14;99.25
10978;BME280;5542;48.272;10.794;2023-05-14T06:36:07;95546.09;;;10.25;99.71
10978;BME280;5542;48.272;10.794;2023-05-14T06:38:33;95544.97;;;10.44;97.24
10978;BME280;5542;48.272;10.794;2023-05-14T06:41:00;95543.81;;;10.40;98.11
10978;BME280;5542;48.272;10.794;2023-05-14T06:43:26;95545.41;;;10.30;98.49
10978;BME280;5542;48.272;10.794;2023-05-14T06:45:54;95543.72;;;10.12;100.00
10978;BME280;5542;48.272;10.794;2023-05-14T06:48:21;95547.44;;;10.16;100.00
10978;BME280;5542;48.272;10.794;2023-05-14T06:50:48;95550.56;;;10.36;99.70
10978;BME280;5542;48.272;10.794;2023-05-14T06:53:15;95547.13;;;10.47;97.66
10978;BME280;5542;48.272;10.794;2023-05-14T06:55:41;95549.19;;;10.45;96.73
10978;BME280;5542;48.272;10.794;2023-05-14T06:58:09;95552.19;;;10.25;99.03
10978;BME280;5542;48.272;10.794;2023-05-14T07:00:36;95547.47;;;10.39;97.03
10978;BME280;5542;48.272;10.794;2023-05-14T07:03:05;95551.94;;;10.27;97.39
10978;BME280;5542;48.272;10.794;2023-05-14T07:05:31;95552.41;;;10.24;97.56
10978;BME280;5542;48.272;10.794;2023-05-14T07:07:58;95548.97;;;10.12;98.92
10978;BME280;5542;48.272;10.794;2023-05-14T07:10:25;95549.09;;;10.29;98.08
10978;BME280;5542;48.272;10.794;2023-05-14T07:12:51;95542.09;;;10.34;98.04
10978;BME280;5542;48.272;10.794;2023-05-14T07:15:18;95538.56;;;10.29;98.30
10978;BME280;5542;48.272;10.794;2023-05-14T07:17:45;95545.75;;;10.21;99.35
10978;BME280;5542;48.272;10.794;2023-05-14T07:20:13;95543.22;;;10.15;98.63
10978;BME280;5542;48.272;10.794;2023-05-14T07:22:39;95543.13;;;10.21;98.91
10978;BME280;5542;48.272;10.794;2023-05-14T07:25:07;95538.66;;;10.22;97.36
10978;BME280;5542;48.272;10.794;2023-05-14T07:27:33;95542.53;;;10.19;97.99
10978;BME280;5542;48.272;10.794;2023-05-14T07:30:00;95543.81;;;10.17;99.75
10978;BME280;5542;48.272;10.794;2023-05-14T07:32:26;95544.84;;;10.28;97.30
10978;BME280;5542;48.272;10.794;2023-05-14T07:34:53;95544.06;;;10.27;97.19
10978;BME280;5542;48.272;10.794;2023-05-14T07:37:21;95540.72;;;10.20;96.91
10978;BME280;5542;48.272;10.794;2023-05-14T07:39:50;95537.19;;;10.03;98.76
10978;BME280;5542;48.272;10.794;2023-05-14T07:42:16;95541.88;;;10.00;98.17
10978;BME280;5542;48.272;10.794;2023-05-14T07:44:43;95544.50;;;10.12;98.53
10978;BME280;5542;48.272;10.794;2023-05-14T07:47:10;95549.28;;;10.15;98.41
10978;BME280;5542;48.272;10.794;2023-05-14T07:49:37;95550.34;;;10.26;98.00
10978;BME280;5542;48.272;10.794;2023-05-14T07:52:04;95544.41;;;10.31;96.78
10978;BME280;5542;48.272;10.794;2023-05-14T07:54:32;95545.91;;;10.27;98.04
10978;BME280;5542;48.272;10.794;2023-05-14T07:56:59;95542.91;;;10.35;98.70
10978;BME280;5542;48.272;10.794;2023-05-14T07:59:25;95548.94;;;10.23;98.51
10978;BME280;5542;48.272;10.794;2023-05-14T08:01:52;95547.34;;;10.11;100.00
10978;BME280;5542;48.272;10.794;2023-05-14T08:04:19;95549.63;;;10.19;100.00
10978;BME280;5542;48.272;10.794;2023-05-14T08:06:47;95545.66;;;10.16;100.00
10978;BME280;5542;48.272;10.794;2023-05-14T08:09:14;95553.28;;;10.18;100.00
10978;BME280;5542;48.272;10.794;2023-05-14T08:11:42;95544.50;;;10.24;100.00
10978;BME280;5542;48.272;10.794;2023-05-14T08:14:10;95542.00;;;10.29;100.00
10978;BME280;5542;48.272;10.794;2023-05-14T08:16:37;95539.38;;;10.41;100.00
10978;BME280;5542;48.272;10.794;2023-05-14T08:19:03;95529.75;;;10.46;100.00
10978;BME280;5542;48.272;10.794;2023-05-14T08:21:30;95525.13;;;10.54;100.00
10978;BME280;5542;48.272;10.794;2023-05-14T08:23:57;95523.28;;;10.66;100.00
10978;BME280;5542;48.272;10.794;2023-05-14T08:26:23;95522.09;;;10.85;100.00
10978;BME280;5542;48.272;10.794;2023-05-14T08:28:51;95510.66;;;11.08;100.00
10978;BME280;5542;48.272;10.794;2023-05-14T08:31:18;95518.03;;;11.23;100.00
10978;BME280;5542;48.272;10.794;2023-05-14T08:33:45;95510.38;;;11.21;100.00
10978;BME280;5542;48.272;10.794;2023-05-14T08:36:12;95513.03;;;11.38;100.00
10978;BME280;5542;48.272;10.794;2023-05-14T08:38:39;95507.84;;;11.43;99.56
10978;BME280;5542;48.272;10.794;2023-05-14T08:41:07;95510.31;;;11.33;96.80
10978;BME280;5542;48.272;10.794;2023-05-14T08:43:42;95507.91;;;11.48;96.66
10978;BME280;5542;48.272;10.794;2023-05-14T08:46:12;95507.59;;;11.62;97.36
10978;BME280;5542;48.272;10.794;2023-05-14T08:48:41;95505.06;;;11.67;96.38
10978;BME280;5542;48.272;10.794;2023-05-14T08:51:08;95507.53;;;11.73;92.46
10978;BME280;5542;48.272;10.794;2023-05-14T08:53:34;95507.06;;;11.60;92.44
10978;BME280;5542;48.272;10.794;2023-05-14T08:56:03;95501.72;;;11.54;89.11
10978;BME280;5542;48.272;10.794;2023-05-14T08:58:30;95495.38;;;11.39;89.81
10978;BME280;5542;48.272;10.794;2023-05-14T09:00:56;95490.63;;;11.36;91.17
10978;BME280;5542;48.272;10.794;2023-05-14T09:03:25;95494.44;;;11.45;94.99
10978;BME280;5542;48.272;10.794;2023-05-14T09:05:52;95493.31;;;11.58;93.07
10978;BME280;5542;48.272;10.794;2023-05-14T09:08:19;95492.75;;;11.72;90.70
10978;BME280;5542;48.272;10.794;2023-05-14T09:10:46;95489.28;;;11.84;91.21
10978;BME280;5542;48.272;10.794;2023-05-14T09:13:13;95486.44;;;12.07;89.48
10978;BME280;5542;48.272;10.794;2023-05-14T09:15:39;95492.72;;;12.23;86.80
10978;BME280;5542;48.272;10.794;2023-05-14T09:18:06;95499.06;;;12.05;85.39
10978;BME280;5542;48.272;10.794;2023-05-14T09:20:34;95507.59;;;11.62;88.96
10978;BME280;5542;48.272;10.794;2023-05-14T09:23:01;95506.88;;;11.66;90.28
10978;BME280;5542;48.272;10.794;2023-05-14T09:25:30;95507.84;;;11.77;90.62
10978;BME280;5542;48.272;10.794;2023-05-14T09:27:57;95504.84;;;11.85;87.65
10978;BME280;5542;48.272;10.794;2023-05-14T09:30:24;95507.59;;;11.62;89.73
10978;BME280;5542;48.272;10.794;2023-05-14T09:32:52;95503.06;;;11.74;91.12
10978;BME280;5542;48.272;10.794;2023-05-14T09:35:21;95507.22;;;11.87;89.42
10978;BME280;5542;48.272;10.794;2023-05-14T09:37:52;95507.38;;;11.63;85.57
10978;BME280;5542;48.272;10.794;2023-05-14T09:40:20;95493.91;;;11.60;88.07
10978;BME280;5542;48.272;10.794;2023-05-14T09:42:47;95490.38;;;11.71;85.88
10978;BME280;5542;48.272;10.794;2023-05-14T09:45:14;95491.13;;;11.83;86.98
10978;BME280;5542;48.272;10.794;2023-05-14T09:47:41;95482.72;;;11.86;85.61
10978;BME280;5542;48.272;10.794;2023-05-14T09:50:09;95491.38;;;12.20;82.90
10978;BME280;5542;48.272;10.794;2023-05-14T09:52:36;95481.56;;;12.16;82.43
10978;BME280;5542;48.272;10.794;2023-05-14T09:55:05;95488.75;;;12.03;83.94
10978;BME280;5542;48.272;10.794;2023-05-14T09:57:32;95487.25;;;12.08;86.05
10978;BME280;5542;48.272;10.794;2023-05-14T09:59:59;95486.25;;;12.14;85.34
10978;BME280;5542;48.272;10.794;2023-05-14T10:02:29;95486.38;;;12.24;85.94
10978;BME280;5542;48.272;10.794;2023-05-14T10:05:03;95486.72;;;12.27;81.61
10978;BME280;5542;48.272;10.794;2023-05-14T10:07:33;95489.94;;;12.13;82.40
10978;BME280;5542;48.272;10.794;2023-05-14T10:10:02;95494.06;;;12.25;83.09
10978;BME280;5542;48.272;10.794;2023-05-14T10:12:33;95490.44;;;12.32;81.24
10978;BME280;5542;48.272;10.794;2023-05-14T10:15:02;95491.19;;;12.27;81.65
10978;BME280;5542;48.272;10.794;2023-05-14T10:17:31;95485.16;;;12.10;82.47
10978;BME280;5542;48.272;10.794;2023-05-14T10:20:01;95495.97;;;11.91;82.71
10978;BME280;5542;48.272;10.794;2023-05-14T10:22:30;95488.56;;;11.88;84.82
10978;BME280;5542;48.272;10.794;2023-05-14T10:24:59;95481.41;;;12.05;83.25
10978;BME280;5542;48.272;10.794;2023-05-14T10:27:26;95482.38;;;11.99;82.87
10978;BME280;5542;48.272;10.794;2023-05-14T10:29:55;95482.88;;;11.96;84.10
10978;BME280;5542;48.272;10.794;2023-05-14T10:32:23;95481.91;;;12.02;84.38
10978;BME280;5542;48.272;10.794;2023-05-14T10:34:50;95480.91;;;12.09;84.58
10978;BME280;5542;48.272;10.794;2023-05-14T10:37:19;95487.38;;;12.18;83.49
10978;BME280;5542;48.272;10.794;2023-05-14T10:39:48;95481.41;;;12.05;84.94
10978;BME280;5542;48.272;10.794;2023-05-14T10:42:17;95487.25;;;12.08;84.63
10978;BME280;5542;48.272;10.794;2023-05-14T10:44:52;95483.53;;;12.25;83.80
10978;BME280;5542;48.272;10.794;2023-05-14T10:47:21;95479.53;;;12.23;83.04
10978;BME280;5542;48.272;10.794;2023-05-14T10:49:48;95480.00;;;12.20;84.20
10978;BME280;5542;48.272;10.794;2023-05-14T10:52:16;95474.84;;;12.08;83.96
10978;BME280;5542;48.272;10.794;2023-05-14T10:54:50;95480.63;;;12.27;83.87
10978;BME280;5542;48.272;10.794;2023-05-14T10:57:17;95475.50;;;12.37;82.20
10978;BME280;5542;48.272;10.794;2023-05-14T10:59:46;95473.88;;;12.14;81.40
10978;BME280;5542;48.272;10.794;2023-05-14T11:02:22;95468.97;;;12.23;81.73
10978;BME280;5542;48.272;10.794;2023-05-14T11:04:52;95465.28;;;12.24;81.36
10978;BME280;5542;48.272;10.794;2023-05-14T11:07:23;95468.44;;;12.21;80.80
10978;BME280;5542;48.272;10.794;2023-05-14T11:09:50;95469.66;;;12.13;81.34
10978;BME280;5542;48.272;10.794;2023-05-14T11:12:17;95476.97;;;12.28;83.72
10978;BME280;5542;48.272;10.794;2023-05-14T11:14:44;95469.03;;;12.28;82.80
10978;BME280;5542;48.272;10.794;2023-05-14T11:17:10;95472.59;;;12.39;81.66
10978;BME280;5542;48.272;10.794;2023-05-14T11:19:38;95468.75;;;12.46;82.17
10978;BME280;5542;48.272;10.794;2023-05-14T11:22:08;95470.59;;;12.46;81.62
10978;BME280;5542;48.272;10.794;2023-05-14T11:24:38;95469.16;;;12.38;82.63
10978;BME280;5542;48.272;10.794;2023-05-14T11:27:06;95466.00;;;12.36;83.93
10978;BME280;5542;48.272;10.794;2023-05-14T11:29:33;95463.28;;;12.31;82.91
10978;BME280;5542;48.272;10.794;2023-05-14T11:32:00;95461.66;;;12.25;82.86
10978;BME280;5542;48.272;10.794;2023-05-14T11:34:27;95465.34;;;12.29;83.83
10978;BME280;5542;48.272;10.794;2023-05-14T11:36:55;95464.84;;;12.49;81.94
10978;BME280;5542;48.272;10.794;2023-05-14T11:39:22;95455.88;;;12.50;82.06
10978;BME280;5542;48.272;10.794;2023-05-14T11:41:48;95455.13;;;12.54;82.89
10978;BME280;5542;48.272;10.794;2023-05-14T11:44:16;95449.47;;;12.68;81.82
10978;BME280;5542;48.272;10.794;2023-05-14T11:46:53;95453.13;;;12.67;80.87
10978;BME280;5542;48.272;10.794;2023-05-14T11:49:20;95442.81;;;12.87;81.03
10978;BME280;5542;48.272;10.794;2023-05-14T11:51:46;95450.25;;;12.95;78.56
10978;BME280;5542;48.272;10.794;2023-05-14T11:54:14;95443.09;;;13.18;77.93
10978;BME280;5542;48.272;10.794;2023-05-14T11:56:41;95437.91;;;13.28;76.30
10978;BME280;5542;48.272;10.794;2023-05-14T11:59:09;95432.75;;;13.11;75.89
10978;BME280;5542;48.272;10.794;2023-05-14T12:01:36;95433.44;;;13.28;76.58
10978;BME280;5542;48.272;10.794;2023-05-14T12:04:03;95425.75;;;13.27;75.72
10978;BME280;5542;48.272;10.794;2023-05-14T12:06:30;95431.72;;;13.17;76.17
10978;BME280;5542;48.272;10.794;2023-05-14T12:08:57;95424.25;;;13.36;75.80
10978;BME280;5542;48.272;10.794;2023-05-14T12:11:29;95422.38;;;13.31;74.99
10978;BME280;5542;48.272;10.794;2023-05-14T12:13:56;95415.41;;;13.57;78.16
10978;BME280;5542;48.272;10.794;2023-05-14T12:16:22;95417.66;;;13.81;78.42
10978;BME280;5542;48.272;10.794;2023-05-14T12:18:49;95412.72;;;13.95;74.06
10978;BME280;5542;48.272;10.794;2023-05-14T12:21:16;95408.34;;;14.16;72.54
10978;BME280;5542;48.272;10.794;2023-05-14T12:23:42;95405.50;;;14.32;70.70
10978;BME280;5542;48.272;10.794;2023-05-14T12:26:09;95399.91;;;14.24;68.46
10978;BME280;5542;48.272;10.794;2023-05-14T12:28:39;95395.66;;;14.23;70.09
10978;BME280;5542;48.272;10.794;2023-05-14T12:31:07;95394.34;;;14.15;70.24
10978;BME280;5542;48.272;10.794;2023-05-14T12:33:34;95390.13;;;14.24;70.64
10978;BME280;5542;48.272;10.794;2023-05-14T12:36:00;95389.91;;;14.36;71.86
10978;BME280;5542;48.272;10.794;2023-05-14T12:38:27;95392.81;;;14.34;71.02
10978;BME280;5542;48.272;10.794;2023-05-14T12:40:54;95386.53;;;14.51;70.15
10978;BME280;5542;48.272;10.794;2023-05-14T12:43:20;95389.50;;;14.80;70.12
10978;BME280;5542;48.272;10.794;2023-05-14T12:45:48;95385.28;;;14.94;70.52
10978;BME280;5542;48.272;10.794;2023-05-14T12:48:15;95381.06;;;15.14;69.87
10978;BME280;5542;48.272;10.794;2023-05-14T12:50:41;95374.16;;;15.28;66.80
10978;BME280;5542;48.272;10.794;2023-05-14T12:53:08;95378.16;;;15.10;64.21
10978;BME280;5542;48.272;10.794;2023-05-14T12:55:34;95373.38;;;15.12;63.13